sensor_id;sensor_type;location;lat;lon;timestamp;temperature;humidity
43949;DHT22;29429;51.074;13.764;2023-02-26T00:00:03;0.40;99.90
43949;DHT22;29429;51.074;13.764;2023-02-26T00:33:22;0.40;99.90
43949;DHT22;29429;51.074;13.764;2023-02-26T00:41:49;0.40;99.90
43949;DHT22;29429;51.074;13.764;2023-02-26T00:44:22;0.40;99.90
43949;DHT22;29429;51.074;13.764;2023-02-26T00:51:22;0.30;99.90
43949;DHT22;29429;51.074;13.764;2023-02-26T00:54:23;0.30;99.90
43949;DHT22;29429;51.074;13.764;2023-02-26T00:56:52;-0.40;99.90
43949;DHT22;29429;51.074;13.764;2023-02-26T00:59:25;0.30;99.90
43949;DHT22;29429;51.074;13.764;2023-02-26T01:01:53;0.30;99.90
43949;DHT22;29429;51.074;13.764;2023-02-26T01:04:40;0.30;99.90
43949;DHT22;29429;51.074;13.764;2023-02-26T01:07:23;0.20;99.90
43949;DHT22;29429;51.074;13.764;2023-02-26T01:11:14;0.20;99.90
43949;DHT22;29429;51.074;13.764;2023-02-26T01:14:22;0.30;99.90
43949;DHT22;29429;51.074;13.764;2023-02-26T01:20:47;0.30;99.90
43949;DHT22;29429;51.074;13.764;2023-02-26T01:23:34;0.30;99.90
43949;DHT22;29429;51.074;13.764;2023-02-26T01:28:48;0.30;99.90
43949;DHT22;29429;51.074;13.764;2023-02-26T01:42:21;0.30;99.90
43949;DHT22;29429;51.074;13.764;2023-02-26T01:45:20;0.30;99.90
43949;DHT22;29429;51.074;13.764;2023-02-26T01:49:19;0.30;99.90
43949;DHT22;29429;51.074;13.764;2023-02-26T01:51:57;0.20;99.90
43949;DHT22;29429;51.074;13.764;2023-02-26T01:54:37;0.10;99.90
43949;DHT22;29429;51.074;13.764;2023-02-26T01:57:42;0.20;99.90
43949;DHT22;29429;51.074;13.764;2023-02-26T02:00:37;0.20;99.90
43949;DHT22;29429;51.074;13.764;2023-02-26T02:03:33;0.20;99.90
43949;DHT22;29429;51.074;13.764;2023-02-26T02:06:27;0.40;99.90
43949;DHT22;29429;51.074;13.764;2023-02-26T02:08:56;0.20;99.90
43949;DHT22;29429;51.074;13.764;2023-02-26T02:15:27;0.20;99.90
43949;DHT22;29429;51.074;13.764;2023-02-26T02:18:22;0.20;99.90
43949;DHT22;29429;51.074;13.764;2023-02-26T02:27:29;0.30;99.90
43949;DHT22;29429;51.074;13.764;2023-02-26T02:30:31;0.30;99.90
43949;DHT22;29429;51.074;13.764;2023-02-26T02:33:11;0.30;99.90
43949;DHT22;29429;51.074;13.764;2023-02-26T02:35:53;0.30;99.90
43949;DHT22;29429;51.074;13.764;2023-02-26T02:38:41;0.20;99.90
43949;DHT22;29429;51.074;13.764;2023-02-26T02:41:19;0.40;99.90
43949;DHT22;29429;51.074;13.764;2023-02-26T02:43:53;0.30;99.90
43949;DHT22;29429;51.074;13.764;2023-02-26T02:46:27;0.30;99.90
43949;DHT22;29429;51.074;13.764;2023-02-26T02:49:01;0.30;99.90
43949;DHT22;29429;51.074;13.764;2023-02-26T02:51:50;0.30;99.90
43949;DHT22;29429;51.074;13.764;2023-02-26T02:54:32;0.30;99.90
43949;DHT22;29429;51.074;13.764;2023-02-26T02:57:52;0.30;99.90
43949;DHT22;29429;51.074;13.764;2023-02-26T03:00:05;0.30;99.90
43949;DHT22;29429;51.074;13.764;2023-02-26T03:03:08;0.40;99.90
43949;DHT22;29429;51.074;13.764;2023-02-26T03:05:43;0.40;99.90
43949;DHT22;29429;51.074;13.764;2023-02-26T03:08:15;0.40;99.90
43949;DHT22;29429;51.074;13.764;2023-02-26T03:10:46;0.40;99.90
43949;DHT22;29429;51.074;13.764;2023-02-26T03:13:22;0.30;99.90
43949;DHT22;29429;51.074;13.764;2023-02-26T03:24:59;0.40;99.90
43949;DHT22;29429;51.074;13.764;2023-02-26T03:30:52;0.40;99.90
43949;DHT22;29429;51.074;13.764;2023-02-26T03:40:46;0.40;99.90
43949;DHT22;29429;51.074;13.764;2023-02-26T03:44:08;0.30;99.90
43949;DHT22;29429;51.074;13.764;2023-02-26T03:47:00;0.40;99.90
43949;DHT22;29429;51.074;13.764;2023-02-26T03:49:47;0.40;99.90
43949;DHT22;29429;51.074;13.764;2023-02-26T03:52:31;0.40;99.90
43949;DHT22;29429;51.074;13.764;2023-02-26T03:55:23;0.40;99.90
43949;DHT22;29429;51.074;13.764;2023-02-26T03:58:25;0.40;99.90
43949;DHT22;29429;51.074;13.764;2023-02-26T04:01:19;0.40;99.90
43949;DHT22;29429;51.074;13.764;2023-02-26T04:06:30;0.40;99.90
43949;DHT22;29429;51.074;13.764;2023-02-26T04:09:08;0.50;99.90
43949;DHT22;29429;51.074;13.764;2023-02-26T04:11:42;0.40;99.90
43949;DHT22;29429;51.074;13.764;2023-02-26T04:14:23;0.30;99.90
43949;DHT22;29429;51.074;13.764;2023-02-26T04:17:09;0.30;99.90
43949;DHT22;29429;51.074;13.764;2023-02-26T04:19:36;0.30;99.90
43949;DHT22;29429;51.074;13.764;2023-02-26T04:22:03;0.30;99.90
43949;DHT22;29429;51.074;13.764;2023-02-26T04:24:30;0.30;99.90
43949;DHT22;29429;51.074;13.764;2023-02-26T04:27:00;0.30;99.90
43949;DHT22;29429;51.074;13.764;2023-02-26T04:29:29;0.30;99.90
43949;DHT22;29429;51.074;13.764;2023-02-26T04:31:56;0.40;99.90
43949;DHT22;29429;51.074;13.764;2023-02-26T04:34:24;0.40;99.90
43949;DHT22;29429;51.074;13.764;2023-02-26T04:36:51;0.30;99.90
43949;DHT22;29429;51.074;13.764;2023-02-26T04:39:24;0.30;99.90
43949;DHT22;29429;51.074;13.764;2023-02-26T04:41:54;0.40;99.90
43949;DHT22;29429;51.074;13.764;2023-02-26T04:44:21;0.40;99.90
43949;DHT22;29429;51.074;13.764;2023-02-26T04:46:48;0.30;99.90
43949;DHT22;29429;51.074;13.764;2023-02-26T04:49:17;0.30;99.90
43949;DHT22;29429;51.074;13.764;2023-02-26T04:51:46;0.40;99.90
43949;DHT22;29429;51.074;13.764;2023-02-26T04:54:15;0.30;99.90
43949;DHT22;29429;51.074;13.764;2023-02-26T04:56:42;0.30;99.90
43949;DHT22;29429;51.074;13.764;2023-02-26T04:59:10;0.30;99.90
43949;DHT22;29429;51.074;13.764;2023-02-26T05:01:37;0.30;99.90
43949;DHT22;29429;51.074;13.764;2023-02-26T05:04:06;0.30;99.90
43949;DHT22;29429;51.074;13.764;2023-02-26T05:06:34;0.30;99.90
43949;DHT22;29429;51.074;13.764;2023-02-26T05:09:02;0.30;99.90
43949;DHT22;29429;51.074;13.764;2023-02-26T05:11:29;0.30;99.90
43949;DHT22;29429;51.074;13.764;2023-02-26T05:13:56;0.30;99.90
43949;DHT22;29429;51.074;13.764;2023-02-26T05:16:23;0.30;99.90
43949;DHT22;29429;51.074;13.764;2023-02-26T05:18:52;0.30;99.90
43949;DHT22;29429;51.074;13.764;2023-02-26T05:21:18;0.30;99.90
43949;DHT22;29429;51.074;13.764;2023-02-26T05:23:47;0.30;99.90
43949;DHT22;29429;51.074;13.764;2023-02-26T05:26:16;0.30;99.90
43949;DHT22;29429;51.074;13.764;2023-02-26T05:28:43;0.30;99.90
43949;DHT22;29429;51.074;13.764;2023-02-26T05:31:12;0.30;99.90
43949;DHT22;29429;51.074;13.764;2023-02-26T05:33:45;0.30;99.90
43949;DHT22;29429;51.074;13.764;2023-02-26T05:36:12;0.30;99.90
43949;DHT22;29429;51.074;13.764;2023-02-26T05:38:41;0.30;99.90
43949;DHT22;29429;51.074;13.764;2023-02-26T05:41:08;0.30;99.90
43949;DHT22;29429;51.074;13.764;2023-02-26T05:43:40;0.30;99.90
43949;DHT22;29429;51.074;13.764;2023-02-26T05:46:07;0.30;99.90
43949;DHT22;29429;51.074;13.764;2023-02-26T05:48:36;0.30;99.90
43949;DHT22;29429;51.074;13.764;2023-02-26T05:51:11;0.30;99.90
43949;DHT22;29429;51.074;13.764;2023-02-26T05:53:39;0.30;99.90
43949;DHT22;29429;51.074;13.764;2023-02-26T05:56:06;0.30;99.90
43949;DHT22;29429;51.074;13.764;2023-02-26T05:58:33;0.30;99.90
43949;DHT22;29429;51.074;13.764;2023-02-26T06:01:00;0.30;99.90
43949;DHT22;29429;51.074;13.764;2023-02-26T06:03:27;0.30;99.90
43949;DHT22;29429;51.074;13.764;2023-02-26T06:05:55;0.30;99.90
43949;DHT22;29429;51.074;13.764;2023-02-26T06:08:40;0.30;99.90
43949;DHT22;29429;51.074;13.764;2023-02-26T06:11:10;0.50;99.90
43949;DHT22;29429;51.074;13.764;2023-02-26T06:13:57;0.20;99.90
43949;DHT22;29429;51.074;13.764;2023-02-26T06:16:30;0.40;99.90
43949;DHT22;29429;51.074;13.764;2023-02-26T06:19:14;0.40;99.90
43949;DHT22;29429;51.074;13.764;2023-02-26T06:22:00;0.40;99.90
43949;DHT22;29429;51.074;13.764;2023-02-26T06:24:27;0.30;99.90
43949;DHT22;29429;51.074;13.764;2023-02-26T06:26:57;0.40;99.90
43949;DHT22;29429;51.074;13.764;2023-02-26T06:29:44;0.50;99.90
43949;DHT22;29429;51.074;13.764;2023-02-26T06:32:25;0.40;99.90
43949;DHT22;29429;51.074;13.764;2023-02-26T06:35:21;0.40;99.90
43949;DHT22;29429;51.074;13.764;2023-02-26T06:37:49;0.40;99.90
43949;DHT22;29429;51.074;13.764;2023-02-26T06:41:03;0.40;99.90
43949;DHT22;29429;51.074;13.764;2023-02-26T06:43:33;0.60;99.90
43949;DHT22;29429;51.074;13.764;2023-02-26T06:46:01;0.50;99.90
43949;DHT22;29429;51.074;13.764;2023-02-26T06:48:28;0.50;99.90
43949;DHT22;29429;51.074;13.764;2023-02-26T06:50:55;0.40;99.90
43949;DHT22;29429;51.074;13.764;2023-02-26T06:53:23;0.60;99.90
43949;DHT22;29429;51.074;13.764;2023-02-26T06:55:51;0.50;99.90
43949;DHT22;29429;51.074;13.764;2023-02-26T07:02:38;0.50;99.90
43949;DHT22;29429;51.074;13.764;2023-02-26T07:05:06;0.50;99.90
43949;DHT22;29429;51.074;13.764;2023-02-26T07:07:33;0.50;99.90
43949;DHT22;29429;51.074;13.764;2023-02-26T07:10:00;0.60;99.90
43949;DHT22;29429;51.074;13.764;2023-02-26T07:12:27;0.60;99.90
43949;DHT22;29429;51.074;13.764;2023-02-26T07:14:54;0.80;99.90
43949;DHT22;29429;51.074;13.764;2023-02-26T07:17:21;0.60;99.90
43949;DHT22;29429;51.074;13.764;2023-02-26T07:19:50;0.60;99.90
43949;DHT22;29429;51.074;13.764;2023-02-26T07:22:18;0.60;99.90
43949;DHT22;29429;51.074;13.764;2023-02-26T07:24:48;0.60;99.90
43949;DHT22;29429;51.074;13.764;2023-02-26T07:27:16;0.60;99.90
43949;DHT22;29429;51.074;13.764;2023-02-26T07:29:43;0.70;99.90
43949;DHT22;29429;51.074;13.764;2023-02-26T07:32:10;0.70;99.90
43949;DHT22;29429;51.074;13.764;2023-02-26T07:34:37;0.70;99.90
43949;DHT22;29429;51.074;13.764;2023-02-26T07:37:04;0.70;99.90
43949;DHT22;29429;51.074;13.764;2023-02-26T07:39:31;0.70;99.90
43949;DHT22;29429;51.074;13.764;2023-02-26T07:41:58;0.80;99.90
43949;DHT22;29429;51.074;13.764;2023-02-26T07:44:28;0.80;99.90
43949;DHT22;29429;51.074;13.764;2023-02-26T07:46:55;0.90;99.90
43949;DHT22;29429;51.074;13.764;2023-02-26T07:49:23;0.70;99.90
43949;DHT22;29429;51.074;13.764;2023-02-26T07:51:50;0.70;99.90
43949;DHT22;29429;51.074;13.764;2023-02-26T07:54:18;0.80;99.90
43949;DHT22;29429;51.074;13.764;2023-02-26T07:56:45;0.80;99.90
43949;DHT22;29429;51.074;13.764;2023-02-26T07:59:12;0.80;99.90
43949;DHT22;29429;51.074;13.764;2023-02-26T08:01:39;0.80;99.90
43949;DHT22;29429;51.074;13.764;2023-02-26T08:04:06;0.90;99.90
43949;DHT22;29429;51.074;13.764;2023-02-26T08:06:33;0.90;99.90
43949;DHT22;29429;51.074;13.764;2023-02-26T08:09:02;0.90;99.90
43949;DHT22;29429;51.074;13.764;2023-02-26T08:11:31;0.90;99.90
43949;DHT22;29429;51.074;13.764;2023-02-26T08:14:01;0.90;99.90
43949;DHT22;29429;51.074;13.764;2023-02-26T08:16:29;0.90;99.90
43949;DHT22;29429;51.074;13.764;2023-02-26T08:18:55;0.90;99.90
43949;DHT22;29429;51.074;13.764;2023-02-26T08:21:23;0.90;99.90
43949;DHT22;29429;51.074;13.764;2023-02-26T08:23:50;0.90;99.90
43949;DHT22;29429;51.074;13.764;2023-02-26T08:26:18;0.90;99.90
43949;DHT22;29429;51.074;13.764;2023-02-26T08:28:45;0.90;99.90
43949;DHT22;29429;51.074;13.764;2023-02-26T08:31:13;0.90;99.90
43949;DHT22;29429;51.074;13.764;2023-02-26T08:33:41;0.90;99.90
43949;DHT22;29429;51.074;13.764;2023-02-26T08:36:09;1.00;99.90
43949;DHT22;29429;51.074;13.764;2023-02-26T08:38:37;1.00;99.90
43949;DHT22;29429;51.074;13.764;2023-02-26T08:41:05;1.00;99.90
43949;DHT22;29429;51.074;13.764;2023-02-26T08:43:32;1.00;99.90
43949;DHT22;29429;51.074;13.764;2023-02-26T08:46:00;1.10;99.90
43949;DHT22;29429;51.074;13.764;2023-02-26T08:48:27;1.10;99.90
43949;DHT22;29429;51.074;13.764;2023-02-26T08:50:54;1.20;99.90
43949;DHT22;29429;51.074;13.764;2023-02-26T08:53:22;1.20;99.90
43949;DHT22;29429;51.074;13.764;2023-02-26T08:55:52;1.30;99.90
43949;DHT22;29429;51.074;13.764;2023-02-26T08:58:21;1.30;99.90
43949;DHT22;29429;51.074;13.764;2023-02-26T09:00:48;1.40;99.90
43949;DHT22;29429;51.074;13.764;2023-02-26T09:07:14;1.40;99.90
43949;DHT22;29429;51.074;13.764;2023-02-26T09:10:01;1.60;99.90
43949;DHT22;29429;51.074;13.764;2023-02-26T09:12:28;1.50;99.90
43949;DHT22;29429;51.074;13.764;2023-02-26T09:14:55;1.50;99.90
43949;DHT22;29429;51.074;13.764;2023-02-26T09:17:25;1.50;99.90
43949;DHT22;29429;51.074;13.764;2023-02-26T09:19:52;1.50;99.90
43949;DHT22;29429;51.074;13.764;2023-02-26T09:22:22;1.50;99.90
43949;DHT22;29429;51.074;13.764;2023-02-26T09:24:50;1.50;99.90
43949;DHT22;29429;51.074;13.764;2023-02-26T09:27:17;1.50;99.90
43949;DHT22;29429;51.074;13.764;2023-02-26T09:29:45;1.50;99.90
43949;DHT22;29429;51.074;13.764;2023-02-26T09:32:12;1.40;99.90
43949;DHT22;29429;51.074;13.764;2023-02-26T09:34:45;1.60;99.90
43949;DHT22;29429;51.074;13.764;2023-02-26T09:37:14;2.50;99.90
43949;DHT22;29429;51.074;13.764;2023-02-26T09:39:46;1.30;99.90
43949;DHT22;29429;51.074;13.764;2023-02-26T09:42:34;1.90;99.90
43949;DHT22;29429;51.074;13.764;2023-02-26T09:48:02;2.10;99.90
43949;DHT22;29429;51.074;13.764;2023-02-26T09:50:55;2.20;99.90
43949;DHT22;29429;51.074;13.764;2023-02-26T09:53:29;2.30;99.90
43949;DHT22;29429;51.074;13.764;2023-02-26T09:56:23;2.50;99.90
43949;DHT22;29429;51.074;13.764;2023-02-26T09:58:52;2.30;99.90
43949;DHT22;29429;51.074;13.764;2023-02-26T10:07:14;2.30;99.90
43949;DHT22;29429;51.074;13.764;2023-02-26T10:09:55;2.40;99.90
43949;DHT22;29429;51.074;13.764;2023-02-26T10:12:26;2.50;99.90
43949;DHT22;29429;51.074;13.764;2023-02-26T10:17:54;2.60;99.90
43949;DHT22;29429;51.074;13.764;2023-02-26T10:20:36;2.60;99.90
43949;DHT22;29429;51.074;13.764;2023-02-26T10:26:22;2.60;99.90
43949;DHT22;29429;51.074;13.764;2023-02-26T10:34:36;2.70;99.90
43949;DHT22;29429;51.074;13.764;2023-02-26T10:40:50;3.00;99.90
43949;DHT22;29429;51.074;13.764;2023-02-26T10:43:37;2.80;99.90
43949;DHT22;29429;51.074;13.764;2023-02-26T10:49:36;2.70;99.90
43949;DHT22;29429;51.074;13.764;2023-02-26T10:52:24;2.70;99.90
43949;DHT22;29429;51.074;13.764;2023-02-26T10:58:20;2.60;99.90
43949;DHT22;29429;51.074;13.764;2023-02-26T11:00:51;2.70;99.90
43949;DHT22;29429;51.074;13.764;2023-02-26T11:03:33;2.50;99.90
43949;DHT22;29429;51.074;13.764;2023-02-26T11:06:04;2.60;99.90
43949;DHT22;29429;51.074;13.764;2023-02-26T11:08:44;2.60;99.90
43949;DHT22;29429;51.074;13.764;2023-02-26T11:11:35;2.70;99.90
43949;DHT22;29429;51.074;13.764;2023-02-26T11:14:02;2.80;99.90
43949;DHT22;29429;51.074;13.764;2023-02-26T11:16:29;2.90;99.90
43949;DHT22;29429;51.074;13.764;2023-02-26T11:18:58;3.00;99.90
43949;DHT22;29429;51.074;13.764;2023-02-26T11:21:29;3.10;99.90
43949;DHT22;29429;51.074;13.764;2023-02-26T11:24:11;3.20;99.90
43949;DHT22;29429;51.074;13.764;2023-02-26T11:26:43;3.20;99.90
43949;DHT22;29429;51.074;13.764;2023-02-26T11:29:17;3.10;99.90
43949;DHT22;29429;51.074;13.764;2023-02-26T11:31:54;3.00;99.90
43949;DHT22;29429;51.074;13.764;2023-02-26T11:34:27;3.10;99.90
43949;DHT22;29429;51.074;13.764;2023-02-26T11:36:59;2.90;99.90
43949;DHT22;29429;51.074;13.764;2023-02-26T11:39:32;3.00;99.90
43949;DHT22;29429;51.074;13.764;2023-02-26T11:42:03;2.90;99.90
43949;DHT22;29429;51.074;13.764;2023-02-26T11:44:34;3.00;99.90
43949;DHT22;29429;51.074;13.764;2023-02-26T11:47:13;3.10;99.90
43949;DHT22;29429;51.074;13.764;2023-02-26T11:49:50;3.20;99.90
43949;DHT22;29429;51.074;13.764;2023-02-26T11:52:39;3.30;99.90
43949;DHT22;29429;51.074;13.764;2023-02-26T11:55:20;3.50;99.90
43949;DHT22;29429;51.074;13.764;2023-02-26T11:57:55;3.60;99.90
43949;DHT22;29429;51.074;13.764;2023-02-26T12:02:58;3.50;99.90
43949;DHT22;29429;51.074;13.764;2023-02-26T12:05:27;3.40;99.90
43949;DHT22;29429;51.074;13.764;2023-02-26T12:07:54;3.30;99.90
43949;DHT22;29429;51.074;13.764;2023-02-26T12:10:37;3.40;99.90
43949;DHT22;29429;51.074;13.764;2023-02-26T12:13:21;3.40;99.90
43949;DHT22;29429;51.074;13.764;2023-02-26T12:16:17;3.50;99.90
43949;DHT22;29429;51.074;13.764;2023-02-26T12:25:58;3.80;99.90
43949;DHT22;29429;51.074;13.764;2023-02-26T13:05:59;3.00;99.90
43949;DHT22;29429;51.074;13.764;2023-02-26T13:20:49;3.20;99.90
43949;DHT22;29429;51.074;13.764;2023-02-26T13:23:24;3.40;99.90
43949;DHT22;29429;51.074;13.764;2023-02-26T13:25:59;3.30;99.90
43949;DHT22;29429;51.074;13.764;2023-02-26T13:31:37;3.10;99.90
43949;DHT22;29429;51.074;13.764;2023-02-26T13:34:38;3.10;99.90
43949;DHT22;29429;51.074;13.764;2023-02-26T13:37:40;3.00;99.90
43949;DHT22;29429;51.074;13.764;2023-02-26T13:43:22;2.90;99.90
43949;DHT22;29429;51.074;13.764;2023-02-26T13:51:35;3.10;99.90
43949;DHT22;29429;51.074;13.764;2023-02-26T13:54:31;3.20;99.90
43949;DHT22;29429;51.074;13.764;2023-02-26T13:57:36;3.30;99.90
43949;DHT22;29429;51.074;13.764;2023-02-26T14:00:46;3.60;99.90
43949;DHT22;29429;51.074;13.764;2023-02-26T14:11:24;3.30;99.90
43949;DHT22;29429;51.074;13.764;2023-02-26T14:14:24;3.20;99.90
43949;DHT22;29429;51.074;13.764;2023-02-26T14:25:09;2.40;99.90
43949;DHT22;29429;51.074;13.764;2023-02-26T14:27:42;2.30;99.90
43949;DHT22;29429;51.074;13.764;2023-02-26T14:30:33;2.30;99.90
43949;DHT22;29429;51.074;13.764;2023-02-26T14:35:32;2.20;99.90
43949;DHT22;29429;51.074;13.764;2023-02-26T14:38:06;2.30;99.90
43949;DHT22;29429;51.074;13.764;2023-02-26T14:40:42;2.40;99.90
43949;DHT22;29429;51.074;13.764;2023-02-26T14:43:19;2.50;99.90
43949;DHT22;29429;51.074;13.764;2023-02-26T14:46:01;2.70;99.90
43949;DHT22;29429;51.074;13.764;2023-02-26T14:48:32;2.70;99.90
43949;DHT22;29429;51.074;13.764;2023-02-26T14:57:02;2.70;99.90
43949;DHT22;29429;51.074;13.764;2023-02-26T14:59:44;2.90;99.90
43949;DHT22;29429;51.074;13.764;2023-02-26T15:11:39;2.80;99.90
43949;DHT22;29429;51.074;13.764;2023-02-26T15:14:43;2.60;99.90
43949;DHT22;29429;51.074;13.764;2023-02-26T15:23:43;1.80;99.90
43949;DHT22;29429;51.074;13.764;2023-02-26T15:26:33;1.60;99.90
43949;DHT22;29429;51.074;13.764;2023-02-26T15:29:05;1.50;99.90
43949;DHT22;29429;51.074;13.764;2023-02-26T15:31:48;1.50;99.90
43949;DHT22;29429;51.074;13.764;2023-02-26T15:34:20;1.50;99.90
43949;DHT22;29429;51.074;13.764;2023-02-26T15:36:51;1.50;99.90
43949;DHT22;29429;51.074;13.764;2023-02-26T15:39:22;1.60;99.90
43949;DHT22;29429;51.074;13.764;2023-02-26T15:41:52;1.60;99.90
43949;DHT22;29429;51.074;13.764;2023-02-26T15:44:24;1.50;99.90
43949;DHT22;29429;51.074;13.764;2023-02-26T15:46:58;1.50;99.90
43949;DHT22;29429;51.074;13.764;2023-02-26T15:49:34;1.40;99.90
43949;DHT22;29429;51.074;13.764;2023-02-26T15:52:06;1.40;99.90
43949;DHT22;29429;51.074;13.764;2023-02-26T15:54:49;1.30;99.90
43949;DHT22;29429;51.074;13.764;2023-02-26T15:57:21;1.20;99.90
43949;DHT22;29429;51.074;13.764;2023-02-26T15:59:54;1.20;99.90
43949;DHT22;29429;51.074;13.764;2023-02-26T16:02:37;1.20;99.90
43949;DHT22;29429;51.074;13.764;2023-02-26T16:05:09;1.20;99.90
43949;DHT22;29429;51.074;13.764;2023-02-26T16:07:40;1.20;99.90
43949;DHT22;29429;51.074;13.764;2023-02-26T16:10:16;1.20;99.90
43949;DHT22;29429;51.074;13.764;2023-02-26T16:12:54;1.20;99.90
43949;DHT22;29429;51.074;13.764;2023-02-26T16:15:31;1.20;99.90
43949;DHT22;29429;51.074;13.764;2023-02-26T16:18:06;1.20;99.90
43949;DHT22;29429;51.074;13.764;2023-02-26T16:20:47;1.30;99.90
43949;DHT22;29429;51.074;13.764;2023-02-26T16:23:28;1.30;99.90
43949;DHT22;29429;51.074;13.764;2023-02-26T16:26:10;1.40;99.90
43949;DHT22;29429;51.074;13.764;2023-02-26T16:29:16;1.40;99.90
43949;DHT22;29429;51.074;13.764;2023-02-26T16:31:51;1.20;99.90
43949;DHT22;29429;51.074;13.764;2023-02-26T16:34:43;1.10;99.90
43949;DHT22;29429;51.074;13.764;2023-02-26T16:37:23;1.00;99.90
43949;DHT22;29429;51.074;13.764;2023-02-26T16:40:39;0.80;99.90
43949;DHT22;29429;51.074;13.764;2023-02-26T16:43:03;0.90;99.90
43949;DHT22;29429;51.074;13.764;2023-02-26T16:48:17;0.70;99.90
43949;DHT22;29429;51.074;13.764;2023-02-26T16:50:59;0.70;99.90
43949;DHT22;29429;51.074;13.764;2023-02-26T16:53:42;0.60;99.90
43949;DHT22;29429;51.074;13.764;2023-02-26T16:56:17;0.50;99.90
43949;DHT22;29429;51.074;13.764;2023-02-26T16:58:48;0.40;99.90
43949;DHT22;29429;51.074;13.764;2023-02-26T17:01:46;0.40;99.90
43949;DHT22;29429;51.074;13.764;2023-02-26T17:04:19;0.30;99.90
43949;DHT22;29429;51.074;13.764;2023-02-26T17:06:51;0.20;99.90
43949;DHT22;29429;51.074;13.764;2023-02-26T17:09:37;0.20;99.90
43949;DHT22;29429;51.074;13.764;2023-02-26T17:12:45;0.30;99.90
43949;DHT22;29429;51.074;13.764;2023-02-26T17:15:29;0.50;99.90
43949;DHT22;29429;51.074;13.764;2023-02-26T17:18:00;0.60;99.90
43949;DHT22;29429;51.074;13.764;2023-02-26T17:20:28;0.80;99.90
43949;DHT22;29429;51.074;13.764;2023-02-26T17:23:00;0.90;99.90
43949;DHT22;29429;51.074;13.764;2023-02-26T17:25:36;1.00;99.90
43949;DHT22;29429;51.074;13.764;2023-02-26T17:28:06;1.10;99.90
43949;DHT22;29429;51.074;13.764;2023-02-26T17:30:35;1.20;99.90
43949;DHT22;29429;51.074;13.764;2023-02-26T17:33:03;1.20;99.90
43949;DHT22;29429;51.074;13.764;2023-02-26T17:35:33;1.30;99.90
43949;DHT22;29429;51.074;13.764;2023-02-26T17:38:00;1.30;99.90
43949;DHT22;29429;51.074;13.764;2023-02-26T17:40:33;1.20;99.90
43949;DHT22;29429;51.074;13.764;2023-02-26T17:43:03;1.20;99.90
43949;DHT22;29429;51.074;13.764;2023-02-26T17:45:33;1.00;99.90
43949;DHT22;29429;51.074;13.764;2023-02-26T17:48:02;0.90;99.90
43949;DHT22;29429;51.074;13.764;2023-02-26T17:53:14;0.80;99.90
43949;DHT22;29429;51.074;13.764;2023-02-26T17:55:43;0.60;99.90
43949;DHT22;29429;51.074;13.764;2023-02-26T18:00:55;0.50;99.90
43949;DHT22;29429;51.074;13.764;2023-02-26T18:03:23;0.50;99.90
43949;DHT22;29429;51.074;13.764;2023-02-26T18:05:50;0.30;99.90
43949;DHT22;29429;51.074;13.764;2023-02-26T18:08:29;0.30;99.90
43949;DHT22;29429;51.074;13.764;2023-02-26T18:10:59;0.30;99.90
43949;DHT22;29429;51.074;13.764;2023-02-26T18:13:28;0.20;99.90
43949;DHT22;29429;51.074;13.764;2023-02-26T18:15:57;0.20;99.90
43949;DHT22;29429;51.074;13.764;2023-02-26T18:18:28;0.20;99.90
43949;DHT22;29429;51.074;13.764;2023-02-26T18:20:56;0.20;99.90
43949;DHT22;29429;51.074;13.764;2023-02-26T18:23:23;0.30;99.90
43949;DHT22;29429;51.074;13.764;2023-02-26T18:25:52;0.30;99.90
43949;DHT22;29429;51.074;13.764;2023-02-26T18:28:22;0.40;99.90
43949;DHT22;29429;51.074;13.764;2023-02-26T18:30:53;0.50;99.90
43949;DHT22;29429;51.074;13.764;2023-02-26T18:33:23;0.60;99.90
43949;DHT22;29429;51.074;13.764;2023-02-26T18:35:53;0.60;99.90
43949;DHT22;29429;51.074;13.764;2023-02-26T18:38:26;0.60;99.90
43949;DHT22;29429;51.074;13.764;2023-02-26T18:40:54;0.60;99.90
43949;DHT22;29429;51.074;13.764;2023-02-26T18:43:21;0.50;99.90
43949;DHT22;29429;51.074;13.764;2023-02-26T18:45:49;0.40;99.90
43949;DHT22;29429;51.074;13.764;2023-02-26T18:48:19;0.40;99.90
43949;DHT22;29429;51.074;13.764;2023-02-26T18:50:47;0.30;99.90
43949;DHT22;29429;51.074;13.764;2023-02-26T18:53:15;0.20;99.90
43949;DHT22;29429;51.074;13.764;2023-02-26T18:55:44;0.20;99.90
43949;DHT22;29429;51.074;13.764;2023-02-26T18:58:11;0.10;99.90
43949;DHT22;29429;51.074;13.764;2023-02-26T19:00:39;0.00;99.90
43949;DHT22;29429;51.074;13.764;2023-02-26T19:03:07;-0.10;99.90
43949;DHT22;29429;51.074;13.764;2023-02-26T19:05:35;-0.10;99.90
43949;DHT22;29429;51.074;13.764;2023-02-26T19:08:04;-0.20;99.90
43949;DHT22;29429;51.074;13.764;2023-02-26T19:10:32;-0.20;99.90
43949;DHT22;29429;51.074;13.764;2023-02-26T19:13:00;-0.20;99.90
43949;DHT22;29429;51.074;13.764;2023-02-26T19:15:29;-0.20;99.90
43949;DHT22;29429;51.074;13.764;2023-02-26T19:17:57;-0.30;99.90
43949;DHT22;29429;51.074;13.764;2023-02-26T19:20:26;-0.30;99.90
43949;DHT22;29429;51.074;13.764;2023-02-26T19:22:53;-0.30;99.90
43949;DHT22;29429;51.074;13.764;2023-02-26T19:25:22;-0.30;99.90
43949;DHT22;29429;51.074;13.764;2023-02-26T19:28:03;-0.30;99.90
43949;DHT22;29429;51.074;13.764;2023-02-26T19:30:31;-0.30;99.90
43949;DHT22;29429;51.074;13.764;2023-02-26T19:33:00;-0.40;99.90
43949;DHT22;29429;51.074;13.764;2023-02-26T19:35:28;-0.40;99.90
43949;DHT22;29429;51.074;13.764;2023-02-26T19:37:57;-0.40;99.90
43949;DHT22;29429;51.074;13.764;2023-02-26T19:40:25;-0.40;99.90
43949;DHT22;29429;51.074;13.764;2023-02-26T19:42:55;-0.50;99.90
43949;DHT22;29429;51.074;13.764;2023-02-26T19:45:23;-0.50;99.90
43949;DHT22;29429;51.074;13.764;2023-02-26T19:47:50;-0.50;99.90
43949;DHT22;29429;51.074;13.764;2023-02-26T19:50:18;-0.60;99.90
43949;DHT22;29429;51.074;13.764;2023-02-26T19:52:47;-0.60;99.90
43949;DHT22;29429;51.074;13.764;2023-02-26T19:55:15;-0.60;99.90
43949;DHT22;29429;51.074;13.764;2023-02-26T19:57:43;-0.70;99.90
43949;DHT22;29429;51.074;13.764;2023-02-26T20:00:11;-0.70;99.90
43949;DHT22;29429;51.074;13.764;2023-02-26T20:02:41;-0.70;99.90
43949;DHT22;29429;51.074;13.764;2023-02-26T20:05:11;-0.70;99.90
43949;DHT22;29429;51.074;13.764;2023-02-26T20:07:43;-0.80;99.90
43949;DHT22;29429;51.074;13.764;2023-02-26T20:10:12;-0.70;99.90
43949;DHT22;29429;51.074;13.764;2023-02-26T20:12:43;-0.80;99.90
43949;DHT22;29429;51.074;13.764;2023-02-26T20:15:12;-0.80;99.90
43949;DHT22;29429;51.074;13.764;2023-02-26T20:17:40;-0.70;99.90
43949;DHT22;29429;51.074;13.764;2023-02-26T20:20:13;-0.70;99.90
43949;DHT22;29429;51.074;13.764;2023-02-26T20:22:41;-0.70;99.90
43949;DHT22;29429;51.074;13.764;2023-02-26T20:25:08;-0.80;99.90
43949;DHT22;29429;51.074;13.764;2023-02-26T20:27:36;-0.80;99.90